sensor_id;sensor_type;location;lat;lon;timestamp;pressure;altitude;pressure_sealevel;temperature
42197;BMP280;27866;48.146;17.098;2022-11-15T00:01:24;100078.50;;;10.04
42197;BMP280;27866;48.146;17.098;2022-11-15T00:05:54;100071.84;;;10.13
42197;BMP280;27866;48.146;17.098;2022-11-15T00:10:24;100072.84;;;10.11
42197;BMP280;27866;48.146;17.098;2022-11-15T00:14:53;100075.94;;;10.04
42197;BMP280;27866;48.146;17.098;2022-11-15T00:19:23;100072.81;;;9.99
42197;BMP280;27866;48.146;17.098;2022-11-15T00:23:53;100071.22;;;10.10
42197;BMP280;27866;48.146;17.098;2022-11-15T00:28:23;100057.28;;;9.99
42197;BMP280;27866;48.146;17.098;2022-11-15T00:32:54;100062.94;;;9.78
42197;BMP280;27866;48.146;17.098;2022-11-15T00:37:24;100061.34;;;9.76
42197;BMP280;27866;48.146;17.098;2022-11-15T00:41:53;100054.84;;;9.69
42197;BMP280;27866;48.146;17.098;2022-11-15T00:46:23;100057.06;;;9.61
42197;BMP280;27866;48.146;17.098;2022-11-15T00:50:53;100058.56;;;9.79
42197;BMP280;27866;48.146;17.098;2022-11-15T00:55:22;100043.97;;;9.91
42197;BMP280;27866;48.146;17.098;2022-11-15T00:59:51;100052.66;;;9.77
42197;BMP280;27866;48.146;17.098;2022-11-15T01:04:21;100059.09;;;9.70
42197;BMP280;27866;48.146;17.098;2022-11-15T01:08:51;100039.28;;;9.70
42197;BMP280;27866;48.146;17.098;2022-11-15T01:13:21;100024.88;;;9.80
42197;BMP280;27866;48.146;17.098;2022-11-15T01:17:51;100012.22;;;9.76
42197;BMP280;27866;48.146;17.098;2022-11-15T01:22:21;100008.16;;;9.72
42197;BMP280;27866;48.146;17.098;2022-11-15T01:26:51;100021.19;;;9.70
42197;BMP280;27866;48.146;17.098;2022-11-15T01:31:21;100023.84;;;9.69
42197;BMP280;27866;48.146;17.098;2022-11-15T01:35:51;100005.75;;;9.69
42197;BMP280;27866;48.146;17.098;2022-11-15T01:40:20;100019.22;;;9.74
42197;BMP280;27866;48.146;17.098;2022-11-15T01:44:51;100018.22;;;9.90
42197;BMP280;27866;48.146;17.098;2022-11-15T01:49:24;100000.38;;;9.99
42197;BMP280;27866;48.146;17.098;2022-11-15T01:53:57;100001.47;;;10.09
42197;BMP280;27866;48.146;17.098;2022-11-15T01:58:28;99992.38;;;10.15
42197;BMP280;27866;48.146;17.098;2022-11-15T02:02:58;99992.38;;;10.15
42197;BMP280;27866;48.146;17.098;2022-11-15T02:07:30;99988.69;;;10.31
42197;BMP280;27866;48.146;17.098;2022-11-15T02:12:01;99987.41;;;10.38
42197;BMP280;27866;48.146;17.098;2022-11-15T02:16:49;99982.34;;;10.49
42197;BMP280;27866;48.146;17.098;2022-11-15T02:21:35;99979.94;;;10.59
42197;BMP280;27866;48.146;17.098;2022-11-15T02:36:25;99972.94;;;10.86
42197;BMP280;27866;48.146;17.098;2022-11-15T02:45:41;99981.88;;;11.06
42197;BMP280;27866;48.146;17.098;2022-11-15T02:50:17;99973.81;;;11.10
42197;BMP280;27866;48.146;17.098;2022-11-15T02:54:59;99958.03;;;11.13
42197;BMP280;27866;48.146;17.098;2022-11-15T02:59:47;99952.84;;;11.13
42197;BMP280;27866;48.146;17.098;2022-11-15T03:18:37;99949.78;;;11.20
42197;BMP280;27866;48.146;17.098;2022-11-15T03:23:10;99949.34;;;11.14
42197;BMP280;27866;48.146;17.098;2022-11-15T03:27:45;99948.94;;;11.20
42197;BMP280;27866;48.146;17.098;2022-11-15T03:32:21;99948.19;;;11.18
42197;BMP280;27866;48.146;17.098;2022-11-15T03:36:53;99943.56;;;11.23
42197;BMP280;27866;48.146;17.098;2022-11-15T03:41:35;99930.06;;;11.18
42197;BMP280;27866;48.146;17.098;2022-11-15T03:46:14;99923.19;;;11.17
42197;BMP280;27866;48.146;17.098;2022-11-15T03:50:45;99926.44;;;11.20
42197;BMP280;27866;48.146;17.098;2022-11-15T03:55:19;99929.22;;;11.17
42197;BMP280;27866;48.146;17.098;2022-11-15T03:59:49;99926.44;;;11.20
42197;BMP280;27866;48.146;17.098;2022-11-15T04:04:22;99917.63;;;11.23
42197;BMP280;27866;48.146;17.098;2022-11-15T04:08:52;99902.94;;;11.23
42197;BMP280;27866;48.146;17.098;2022-11-15T04:13:21;99906.44;;;11.22
42197;BMP280;27866;48.146;17.098;2022-11-15T04:17:54;99898.34;;;11.27
42197;BMP280;27866;48.146;17.098;2022-11-15T04:22:24;99888.81;;;11.27
42197;BMP280;27866;48.146;17.098;2022-11-15T04:27:13;99887.97;;;11.27
42197;BMP280;27866;48.146;17.098;2022-11-15T04:31:44;99887.88;;;11.28
42197;BMP280;27866;48.146;17.098;2022-11-15T04:36:13;99884.25;;;11.30
42197;BMP280;27866;48.146;17.098;2022-11-15T04:41:03;99875.84;;;11.27
42197;BMP280;27866;48.146;17.098;2022-11-15T04:45:33;99882.16;;;11.35
42197;BMP280;27866;48.146;17.098;2022-11-15T04:50:03;99881.13;;;11.38
42197;BMP280;27866;48.146;17.098;2022-11-15T04:54:33;99882.88;;;11.37
42197;BMP280;27866;48.146;17.098;2022-11-15T04:59:03;99876.06;;;11.24
42197;BMP280;27866;48.146;17.098;2022-11-15T05:03:32;99883.09;;;11.34
42197;BMP280;27866;48.146;17.098;2022-11-15T05:08:21;99874.06;;;11.40
42197;BMP280;27866;48.146;17.098;2022-11-15T05:12:50;99854.59;;;11.34
42197;BMP280;27866;48.146;17.098;2022-11-15T05:17:20;99852.47;;;11.39
42197;BMP280;27866;48.146;17.098;2022-11-15T05:21:49;99851.69;;;11.39
42197;BMP280;27866;48.146;17.098;2022-11-15T05:26:19;99854.28;;;11.39
42197;BMP280;27866;48.146;17.098;2022-11-15T05:30:49;99845.44;;;11.41
42197;BMP280;27866;48.146;17.098;2022-11-15T05:35:36;99836.84;;;11.41
42197;BMP280;27866;48.146;17.098;2022-11-15T05:40:08;99836.13;;;11.39
42197;BMP280;27866;48.146;17.098;2022-11-15T05:44:41;99836.00;;;11.40
42197;BMP280;27866;48.146;17.098;2022-11-15T05:49:15;99834.28;;;11.29
42197;BMP280;27866;48.146;17.098;2022-11-15T05:53:46;99841.50;;;11.36
42197;BMP280;27866;48.146;17.098;2022-11-15T05:58:16;99833.41;;;11.40
42197;BMP280;27866;48.146;17.098;2022-11-15T06:02:46;99837.13;;;11.48
42197;BMP280;27866;48.146;17.098;2022-11-15T06:07:16;99843.09;;;11.61
42197;BMP280;27866;48.146;17.098;2022-11-15T06:11:46;99834.28;;;11.63
42197;BMP280;27866;48.146;17.098;2022-11-15T06:16:16;99844.75;;;11.62
42197;BMP280;27866;48.146;17.098;2022-11-15T06:20:45;99832.19;;;11.68
42197;BMP280;27866;48.146;17.098;2022-11-15T06:25:15;99847.25;;;11.63
42197;BMP280;27866;48.146;17.098;2022-11-15T06:29:45;99842.00;;;11.75
42197;BMP280;27866;48.146;17.098;2022-11-15T06:34:14;99844.28;;;11.80
42197;BMP280;27866;48.146;17.098;2022-11-15T06:38:45;99834.63;;;11.82
42197;BMP280;27866;48.146;17.098;2022-11-15T06:43:14;99844.56;;;11.88
42197;BMP280;27866;48.146;17.098;2022-11-15T06:47:47;99837.38;;;11.91
42197;BMP280;27866;48.146;17.098;2022-11-15T06:52:17;99836.81;;;11.98
42197;BMP280;27866;48.146;17.098;2022-11-15T06:56:50;99828.81;;;12.01
42197;BMP280;27866;48.146;17.098;2022-11-15T07:01:20;99836.88;;;12.09
42197;BMP280;27866;48.146;17.098;2022-11-15T07:05:57;99828.00;;;12.01
42197;BMP280;27866;48.146;17.098;2022-11-15T07:10:29;99835.22;;;12.08
42197;BMP280;27866;48.146;17.098;2022-11-15T07:14:59;99828.81;;;12.01
42197;BMP280;27866;48.146;17.098;2022-11-15T07:19:28;99822.94;;;12.10
42197;BMP280;27866;48.146;17.098;2022-11-15T07:23:58;99821.06;;;12.12
42197;BMP280;27866;48.146;17.098;2022-11-15T07:28:28;99826.00;;;12.04
42197;BMP280;27866;48.146;17.098;2022-11-15T07:32:59;99828.47;;;12.05
42197;BMP280;27866;48.146;17.098;2022-11-15T07:37:30;99838.66;;;12.08
42197;BMP280;27866;48.146;17.098;2022-11-15T07:42:00;99832.16;;;12.14
42197;BMP280;27866;48.146;17.098;2022-11-15T07:46:49;99827.25;;;12.21
42197;BMP280;27866;48.146;17.098;2022-11-15T07:51:19;99826.19;;;12.24
42197;BMP280;27866;48.146;17.098;2022-11-15T07:55:49;99823.88;;;12.31
42197;BMP280;27866;48.146;17.098;2022-11-15T08:00:19;99829.06;;;12.31
42197;BMP280;27866;48.146;17.098;2022-11-15T08:04:49;99832.84;;;12.38
42197;BMP280;27866;48.146;17.098;2022-11-15T08:09:18;99828.88;;;12.22
42197;BMP280;27866;48.146;17.098;2022-11-15T08:13:48;99813.13;;;12.36
42197;BMP280;27866;48.146;17.098;2022-11-15T08:18:18;99817.38;;;12.37
42197;BMP280;27866;48.146;17.098;2022-11-15T08:22:47;99815.75;;;12.46
42197;BMP280;27866;48.146;17.098;2022-11-15T08:27:17;99825.19;;;12.47
42197;BMP280;27866;48.146;17.098;2022-11-15T08:31:46;99819.16;;;12.47
42197;BMP280;27866;48.146;17.098;2022-11-15T08:36:17;99812.34;;;12.46
42197;BMP280;27866;48.146;17.098;2022-11-15T08:40:47;99810.66;;;12.45
42197;BMP280;27866;48.146;17.098;2022-11-15T08:45:17;99805.25;;;12.48
42197;BMP280;27866;48.146;17.098;2022-11-15T08:49:47;99804.66;;;12.45
42197;BMP280;27866;48.146;17.098;2022-11-15T08:54:17;99795.47;;;12.51
42197;BMP280;27866;48.146;17.098;2022-11-15T08:58:47;99784.91;;;12.65
42197;BMP280;27866;48.146;17.098;2022-11-15T09:03:17;99797.88;;;12.65
42197;BMP280;27866;48.146;17.098;2022-11-15T09:07:47;99793.66;;;12.75
42197;BMP280;27866;48.146;17.098;2022-11-15T09:12:16;99792.09;;;12.83
42197;BMP280;27866;48.146;17.098;2022-11-15T09:16:46;99784.22;;;12.84
42197;BMP280;27866;48.146;17.098;2022-11-15T09:21:15;99775.34;;;12.97
42197;BMP280;27866;48.146;17.098;2022-11-15T09:25:45;99783.00;;;13.09
42197;BMP280;27866;48.146;17.098;2022-11-15T09:30:15;99774.72;;;13.15
42197;BMP280;27866;48.146;17.098;2022-11-15T09:34:45;99763.94;;;13.41
42197;BMP280;27866;48.146;17.098;2022-11-15T09:39:15;99766.84;;;13.58
42197;BMP280;27866;48.146;17.098;2022-11-15T09:48:59;99740.25;;;13.95
42197;BMP280;27866;48.146;17.098;2022-11-15T09:53:28;99739.91;;;13.89
42197;BMP280;27866;48.146;17.098;2022-11-15T09:58:10;99722.97;;;14.34
42197;BMP280;27866;48.146;17.098;2022-11-15T10:02:58;99703.63;;;15.33
42197;BMP280;27866;48.146;17.098;2022-11-15T10:07:20;99691.63;;;16.05
42197;BMP280;27866;48.146;17.098;2022-11-15T10:11:35;99679.06;;;16.18
42197;BMP280;27866;48.146;17.098;2022-11-15T10:15:47;99682.31;;;16.47
42197;BMP280;27866;48.146;17.098;2022-11-15T10:20:20;99665.63;;;16.57
42197;BMP280;27866;48.146;17.098;2022-11-15T10:24:40;99671.25;;;16.18
42197;BMP280;27866;48.146;17.098;2022-11-15T10:28:53;99667.56;;;16.11
42197;BMP280;27866;48.146;17.098;2022-11-15T10:33:36;99671.84;;;15.84
42197;BMP280;27866;48.146;17.098;2022-11-15T10:37:49;99661.22;;;15.31
42197;BMP280;27866;48.146;17.098;2022-11-15T10:42:28;99658.00;;;15.00
42197;BMP280;27866;48.146;17.098;2022-11-15T10:46:41;99669.38;;;14.99
42197;BMP280;27866;48.146;17.098;2022-11-15T10:50:54;99644.00;;;15.10
42197;BMP280;27866;48.146;17.098;2022-11-15T10:55:28;99633.97;;;15.06
42197;BMP280;27866;48.146;17.098;2022-11-15T10:59:46;99632.72;;;14.91
42197;BMP280;27866;48.146;17.098;2022-11-15T11:04:08;99638.56;;;14.46
42197;BMP280;27866;48.146;17.098;2022-11-15T11:08:24;99630.34;;;14.41
42197;BMP280;27866;48.146;17.098;2022-11-15T11:12:35;99621.53;;;14.71
42197;BMP280;27866;48.146;17.098;2022-11-15T11:35:35;99600.53;;;14.72
42197;BMP280;27866;48.146;17.098;2022-11-15T11:40:37;99584.91;;;14.72
42197;BMP280;27866;48.146;17.098;2022-11-15T11:54:25;99579.31;;;14.38
42197;BMP280;27866;48.146;17.098;2022-11-15T11:58:43;99573.03;;;14.41
42197;BMP280;27866;48.146;17.098;2022-11-15T12:03:44;99559.69;;;14.34
42197;BMP280;27866;48.146;17.098;2022-11-15T12:08:22;99550.03;;;14.17
42197;BMP280;27866;48.146;17.098;2022-11-15T12:17:00;99538.88;;;14.05
42197;BMP280;27866;48.146;17.098;2022-11-15T12:26:05;99523.31;;;14.15
42197;BMP280;27866;48.146;17.098;2022-11-15T12:30:21;99518.09;;;14.15
42197;BMP280;27866;48.146;17.098;2022-11-15T12:34:45;99515.88;;;14.10
42197;BMP280;27866;48.146;17.098;2022-11-15T12:39:03;99507.09;;;14.11
42197;BMP280;27866;48.146;17.098;2022-11-15T12:47:26;99490.94;;;14.08
42197;BMP280;27866;48.146;17.098;2022-11-15T13:04:31;99460.94;;;14.13
42197;BMP280;27866;48.146;17.098;2022-11-15T13:08:46;99462.91;;;14.20
42197;BMP280;27866;48.146;17.098;2022-11-15T13:13:09;99479.53;;;14.00
42197;BMP280;27866;48.146;17.098;2022-11-15T13:17:27;99463.50;;;14.04
42197;BMP280;27866;48.146;17.098;2022-11-15T13:21:49;99452.84;;;14.07
42197;BMP280;27866;48.146;17.098;2022-11-15T13:26:19;99451.03;;;14.07
42197;BMP280;27866;48.146;17.098;2022-11-15T13:30:31;99448.75;;;14.14
42197;BMP280;27866;48.146;17.098;2022-11-15T13:34:46;99438.03;;;14.07
42197;BMP280;27866;48.146;17.098;2022-11-15T13:39:06;99431.44;;;14.04
42197;BMP280;27866;48.146;17.098;2022-11-15T13:43:27;99428.19;;;14.02
42197;BMP280;27866;48.146;17.098;2022-11-15T13:47:39;99433.09;;;14.05
42197;BMP280;27866;48.146;17.098;2022-11-15T13:51:53;99427.59;;;14.07
42197;BMP280;27866;48.146;17.098;2022-11-15T13:56:06;99418.41;;;14.04
42197;BMP280;27866;48.146;17.098;2022-11-15T14:00:39;99410.91;;;14.10
42197;BMP280;27866;48.146;17.098;2022-11-15T14:05:05;99405.16;;;14.16
42197;BMP280;27866;48.146;17.098;2022-11-15T14:09:38;99386.78;;;14.08
42197;BMP280;27866;48.146;17.098;2022-11-15T14:18:42;99373.38;;;14.03
42197;BMP280;27866;48.146;17.098;2022-11-15T14:22:55;99377.19;;;13.99
42197;BMP280;27866;48.146;17.098;2022-11-15T14:27:22;99362.66;;;13.97
42197;BMP280;27866;48.146;17.098;2022-11-15T14:31:33;99362.50;;;13.89
42197;BMP280;27866;48.146;17.098;2022-11-15T14:35:45;99357.44;;;13.88
42197;BMP280;27866;48.146;17.098;2022-11-15T14:39:56;99356.22;;;13.91
42197;BMP280;27866;48.146;17.098;2022-11-15T14:44:11;99349.78;;;13.95
42197;BMP280;27866;48.146;17.098;2022-11-15T14:48:23;99356.22;;;13.91
42197;BMP280;27866;48.146;17.098;2022-11-15T14:52:34;99361.13;;;13.94
42197;BMP280;27866;48.146;17.098;2022-11-15T14:56:46;99354.97;;;13.86
42197;BMP280;27866;48.146;17.098;2022-11-15T15:00:57;99348.94;;;13.86
42197;BMP280;27866;48.146;17.098;2022-11-15T15:05:34;99345.94;;;13.81
42197;BMP280;27866;48.146;17.098;2022-11-15T15:09:46;99342.34;;;13.82
42197;BMP280;27866;48.146;17.098;2022-11-15T15:13:58;99334.16;;;13.86
42197;BMP280;27866;48.146;17.098;2022-11-15T15:18:12;99344.56;;;13.95
42197;BMP280;27866;48.146;17.098;2022-11-15T15:22:26;99330.88;;;13.93
42197;BMP280;27866;48.146;17.098;2022-11-15T15:26:39;99327.88;;;13.98
42197;BMP280;27866;48.146;17.098;2022-11-15T15:30:50;99330.03;;;13.93
42197;BMP280;27866;48.146;17.098;2022-11-15T15:35:04;99325.66;;;13.93
42197;BMP280;27866;48.146;17.098;2022-11-15T15:39:15;99330.47;;;13.98
42197;BMP280;27866;48.146;17.098;2022-11-15T15:43:26;99331.41;;;13.97
42197;BMP280;27866;48.146;17.098;2022-11-15T15:47:38;99323.06;;;14.03
42197;BMP280;27866;48.146;17.098;2022-11-15T15:51:49;99322.38;;;14.10
42197;BMP280;27866;48.146;17.098;2022-11-15T15:56:00;99318.00;;;14.10
42197;BMP280;27866;48.146;17.098;2022-11-15T16:00:13;99323.63;;;14.06
42197;BMP280;27866;48.146;17.098;2022-11-15T16:04:24;99322.38;;;14.01
42197;BMP280;27866;48.146;17.098;2022-11-15T16:08:36;99324.59;;;14.05
42197;BMP280;27866;48.146;17.098;2022-11-15T16:12:48;99321.56;;;14.00
42197;BMP280;27866;48.146;17.098;2022-11-15T16:16:59;99311.56;;;14.05
42197;BMP280;27866;48.146;17.098;2022-11-15T16:21:10;99320.31;;;14.04
42197;BMP280;27866;48.146;17.098;2022-11-15T16:25:21;99312.66;;;13.93
42197;BMP280;27866;48.146;17.098;2022-11-15T16:29:33;99316.88;;;13.94
42197;BMP280;27866;48.146;17.098;2022-11-15T16:33:44;99315.66;;;13.98
42197;BMP280;27866;48.146;17.098;2022-11-15T16:37:56;99318.25;;;13.98
42197;BMP280;27866;48.146;17.098;2022-11-15T16:42:08;99314.88;;;14.07
42197;BMP280;27866;48.146;17.098;2022-11-15T16:46:26;99308.97;;;14.14
42197;BMP280;27866;48.146;17.098;2022-11-15T16:50:37;99302.09;;;14.04
42197;BMP280;27866;48.146;17.098;2022-11-15T16:54:51;99291.16;;;14.10
42197;BMP280;27866;48.146;17.098;2022-11-15T16:59:02;99290.84;;;13.94
42197;BMP280;27866;48.146;17.098;2022-11-15T17:03:13;99284.81;;;13.76
42197;BMP280;27866;48.146;17.098;2022-11-15T17:07:24;99280.44;;;13.76
42197;BMP280;27866;48.146;17.098;2022-11-15T17:11:36;99284.56;;;13.88
42197;BMP280;27866;48.146;17.098;2022-11-15T17:15:47;99291.84;;;13.93
42197;BMP280;27866;48.146;17.098;2022-11-15T17:19:58;99291.69;;;13.86
42197;BMP280;27866;48.146;17.098;2022-11-15T17:24:10;99293.88;;;13.81
42197;BMP280;27866;48.146;17.098;2022-11-15T17:28:21;99291.28;;;13.81
42197;BMP280;27866;48.146;17.098;2022-11-15T17:32:35;99286.72;;;13.74
42197;BMP280;27866;48.146;17.098;2022-11-15T17:36:48;99284.25;;;13.72
42197;BMP280;27866;48.146;17.098;2022-11-15T17:41:09;99277.25;;;13.63
42197;BMP280;27866;48.146;17.098;2022-11-15T17:45:22;99281.81;;;13.80
42197;BMP280;27866;48.146;17.098;2022-11-15T17:49:33;99273.31;;;13.87
42197;BMP280;27866;48.146;17.098;2022-11-15T17:53:49;99258.78;;;13.85
42197;BMP280;27866;48.146;17.098;2022-11-15T17:58:01;99263.47;;;13.91
42197;BMP280;27866;48.146;17.098;2022-11-15T18:02:12;99250.44;;;13.91
42197;BMP280;27866;48.146;17.098;2022-11-15T18:06:24;99240.84;;;14.00
42197;BMP280;27866;48.146;17.098;2022-11-15T18:10:35;99224.31;;;14.01
42197;BMP280;27866;48.146;17.098;2022-11-15T18:14:47;99216.50;;;14.01
42197;BMP280;27866;48.146;17.098;2022-11-15T18:18:59;99225.25;;;13.91
42197;BMP280;27866;48.146;17.098;2022-11-15T18:23:10;99232.66;;;13.86
42197;BMP280;27866;48.146;17.098;2022-11-15T18:27:22;99221.50;;;13.66
42197;BMP280;27866;48.146;17.098;2022-11-15T18:31:33;99221.81;;;13.72
42197;BMP280;27866;48.146;17.098;2022-11-15T18:35:44;99227.38;;;13.68
42197;BMP280;27866;48.146;17.098;2022-11-15T18:39:55;99227.28;;;13.69
42197;BMP280;27866;48.146;17.098;2022-11-15T18:44:07;99227.72;;;13.74
42197;BMP280;27866;48.146;17.098;2022-11-15T18:48:18;99217.84;;;13.87
42197;BMP280;27866;48.146;17.098;2022-11-15T18:52:30;99219.66;;;13.86
42197;BMP280;27866;48.146;17.098;2022-11-15T18:56:41;99207.31;;;13.79
42197;BMP280;27866;48.146;17.098;2022-11-15T19:01:05;99201.00;;;13.72
42197;BMP280;27866;48.146;17.098;2022-11-15T19:05:16;99193.19;;;13.72
42197;BMP280;27866;48.146;17.098;2022-11-15T19:09:32;99183.91;;;13.88
42197;BMP280;27866;48.146;17.098;2022-11-15T19:13:44;99173.59;;;13.87
42197;BMP280;27866;48.146;17.098;2022-11-15T19:17:56;99179.78;;;13.95
42197;BMP280;27866;48.146;17.098;2022-11-15T19:22:07;99173.34;;;13.80
42197;BMP280;27866;48.146;17.098;2022-11-15T19:26:19;99173.97;;;13.64
42197;BMP280;27866;48.146;17.098;2022-11-15T19:30:31;99172.50;;;13.62
42197;BMP280;27866;48.146;17.098;2022-11-15T19:34:42;99171.28;;;13.56
42197;BMP280;27866;48.146;17.098;2022-11-15T19:38:54;99174.81;;;13.46
42197;BMP280;27866;48.146;17.098;2022-11-15T19:43:06;99175.06;;;13.43
42197;BMP280;27866;48.146;17.098;2022-11-15T19:47:17;99165.78;;;13.32
42197;BMP280;27866;48.146;17.098;2022-11-15T19:51:29;99163.88;;;13.33
42197;BMP280;27866;48.146;17.098;2022-11-15T19:55:41;99164.56;;;13.45
42197;BMP280;27866;48.146;17.098;2022-11-15T19:59:53;99163.19;;;13.41
42197;BMP280;27866;48.146;17.098;2022-11-15T20:04:05;99165.09;;;13.39
42197;BMP280;27866;48.146;17.098;2022-11-15T20:08:17;99158.53;;;13.44
42197;BMP280;27866;48.146;17.098;2022-11-15T20:12:28;99152.63;;;13.42
42197;BMP280;27866;48.146;17.098;2022-11-15T20:16:39;99140.56;;;13.41
42197;BMP280;27866;48.146;17.098;2022-11-15T20:20:51;99151.41;;;13.55
42197;BMP280;27866;48.146;17.098;2022-11-15T20:25:02;99159.63;;;13.60
42197;BMP280;27866;48.146;17.098;2022-11-15T20:29:14;99150.56;;;13.55
42197;BMP280;27866;48.146;17.098;2022-11-15T20:33:26;99144.44;;;13.47
42197;BMP280;27866;48.146;17.098;2022-11-15T20:37:37;99137.97;;;13.41
42197;BMP280;27866;48.146;17.098;2022-11-15T20:41:49;99127.19;;;13.36
42197;BMP280;27866;48.146;17.098;2022-11-15T20:46:00;99119.38;;;13.46
42197;BMP280;27866;48.146;17.098;2022-11-15T20:50:11;99123.34;;;13.40
42197;BMP280;27866;48.146;17.098;2022-11-15T20:54:22;99118.53;;;13.45
42197;BMP280;27866;48.146;17.098;2022-11-15T20:58:35;99128.69;;;13.39
42197;BMP280;27866;48.146;17.098;2022-11-15T21:02:47;99121.72;;;13.48
42197;BMP280;27866;48.146;17.098;2022-11-15T21:06:58;99112.25;;;13.57
42197;BMP280;27866;48.146;17.098;2022-11-15T21:11:09;99108.72;;;13.58
42197;BMP280;27866;48.146;17.098;2022-11-15T21:15:39;99111.16;;;13.50
42197;BMP280;27866;48.146;17.098;2022-11-15T21:19:50;99105.97;;;13.50
42197;BMP280;27866;48.146;17.098;2022-11-15T21:24:04;99096.38;;;13.41
42197;BMP280;27866;48.146;17.098;2022-11-15T21:28:16;99097.50;;;13.30
42197;BMP280;27866;48.146;17.098;2022-11-15T21:32:27;99092.97;;;13.41
42197;BMP280;27866;48.146;17.098;2022-11-15T21:36:39;99081.59;;;13.42
42197;BMP280;27866;48.146;17.098;2022-11-15T21:40:52;99080.53;;;13.35
42197;BMP280;27866;48.146;17.098;2022-11-15T21:45:05;99075.16;;;13.46
42197;BMP280;27866;48.146;17.098;2022-11-15T21:49:16;99070.38;;;13.50
42197;BMP280;27866;48.146;17.098;2022-11-15T21:53:28;99073.66;;;13.62
42197;BMP280;27866;48.146;17.098;2022-11-15T21:57:41;99058.59;;;13.65
42197;BMP280;27866;48.146;17.098;2022-11-15T22:01:52;99053.91;;;13.68
42197;BMP280;27866;48.146;17.098;2022-11-15T22:06:22;99061.19;;;13.56
42197;BMP280;27866;48.146;17.098;2022-11-15T22:10:34;99067.09;;;13.58
42197;BMP280;27866;48.146;17.098;2022-11-15T22:14:46;99048.72;;;13.59
42197;BMP280;27866;48.146;17.098;2022-11-15T22:18:59;99065.97;;;13.51
42197;BMP280;27866;48.146;17.098;2022-11-15T22:23:10;99053.41;;;13.56
42197;BMP280;27866;48.146;17.098;2022-11-15T22:27:21;99050.13;;;13.54
42197;BMP280;27866;48.146;17.098;2022-11-15T22:31:33;99042.84;;;13.57
42197;BMP280;27866;48.146;17.098;2022-11-15T22:35:45;99043.56;;;13.50
42197;BMP280;27866;48.146;17.098;2022-11-15T22:39:56;99037.25;;;13.52
42197;BMP280;27866;48.146;17.098;2022-11-15T22:44:08;99028.09;;;13.48
42197;BMP280;27866;48.146;17.098;2022-11-15T22:48:28;99022.22;;;13.37
42197;BMP280;27866;48.146;17.098;2022-11-15T22:52:39;99026.06;;;13.33
42197;BMP280;27866;48.146;17.098;2022-11-15T22:56:52;99020.97;;;13.32
42197;BMP280;27866;48.146;17.098;2022-11-15T23:01:04;99013.16;;;13.32
42197;BMP280;27866;48.146;17.098;2022-11-15T23:05:16;99013.06;;;13.33
42197;BMP280;27866;48.146;17.098;2022-11-15T23:09:28;99011.56;;;13.31
42197;BMP280;27866;48.146;17.098;2022-11-15T23:13:39;99007.19;;;13.32
42197;BMP280;27866;48.146;17.098;2022-11-15T23:17:50;98999.38;;;13.22
42197;BMP280;27866;48.146;17.098;2022-11-15T23:22:01;98991.03;;;13.19
42197;BMP280;27866;48.146;17.098;2022-11-15T23:26:32;98997.19;;;13.18
42197;BMP280;27866;48.146;17.098;2022-11-15T23:30:43;98997.47;;;13.06
42197;BMP280;27866;48.146;17.098;2022-11-15T23:35:13;98999.13;;;13.07
42197;BMP280;27866;48.146;17.098;2022-11-15T23:39:24;98992.41;;;13.04
42197;BMP280;27866;48.146;17.098;2022-11-15T23:43:35;98982.56;;;12.99
42197;BMP280;27866;48.146;17.098;2022-11-15T23:47:46;98981.03;;;13.05
42197;BMP280;27866;48.146;17.098;2022-11-15T23:51:58;98974.63;;;13.09
42197;BMP280;27866;48.146;17.098;2022-11-15T23:56:14;98970.94;;;13.03
